Time;durP1;ratioP1;P1;durP2;ratioP2;P2;SDS_P1;SDS_P2;PMS_P1;PMS_P2;Temp;Humidity;BMP_temperature;BMP_pressure;BME280_temperature;BME280_humidity;BME280_pressure;Samples;Min_cycle;Max_cycle;Signal;HPM_P1;HPM_P2
2023/05/13 00:00:14;;;;;;;10.13;9.23;;;14.40;1.00;;;;;;5070626;28;20442;-53
2023/05/13 00:02:40;;;;;;;9.77;8.93;;;14.30;1.00;;;;;;5067868;28;20732;-52
2023/05/13 00:05:06;;;;;;;10.23;9.33;;;14.30;1.00;;;;;;5069859;28;20534;-57
2023/05/13 00:07:32;;;;;;;10.40;9.43;;;14.20;1.00;;;;;;5070528;28;20286;-53
2023/05/13 00:09:57;;;;;;;10.60;9.57;;;14.20;1.00;;;;;;5084759;28;20560;-52
2023/05/13 00:12:23;;;;;;;11.13;9.70;;;14.20;1.00;;;;;;5067777;28;20175;-54
2023/05/13 00:14:49;;;;;;;11.33;10.23;;;14.20;1.00;;;;;;5068287;28;20205;-54
2023/05/13 00:17:14;;;;;;;10.30;9.30;;;14.20;1.00;;;;;;5066998;28;20261;-53
2023/05/13 00:19:40;;;;;;;11.20;10.17;;;14.20;1.00;;;;;;5068193;28;20226;-54
2023/05/13 00:22:06;;;;;;;9.63;8.70;;;14.10;1.00;;;;;;5069423;28;20187;-52
2023/05/13 00:24:31;;;;;;;11.50;10.43;;;14.10;1.00;;;;;;5070032;28;20188;-57
2023/05/13 00:26:57;;;;;;;10.97;9.97;;;14.10;1.00;;;;;;5068595;28;20279;-52
2023/05/13 00:29:23;;;;;;;11.17;10.27;;;14.00;1.00;;;;;;5066532;28;20473;-52
2023/05/13 00:31:48;;;;;;;10.10;9.20;;;14.00;1.00;;;;;;5070596;28;20227;-52
2023/05/13 00:34:15;;;;;;;11.00;9.90;;;14.00;1.00;;;;;;5070824;28;20183;-52
2023/05/13 00:36:41;;;;;;;11.50;9.77;;;14.00;1.00;;;;;;5065392;28;20634;-56
2023/05/13 00:39:06;;;;;;;11.10;10.00;;;14.00;1.00;;;;;;5062442;28;20477;-54
2023/05/13 00:41:32;;;;;;;10.10;9.10;;;13.90;1.00;;;;;;5067085;28;20711;-54
2023/05/13 00:43:58;;;;;;;11.00;10.00;;;13.90;1.00;;;;;;5065413;28;20207;-54
2023/05/13 00:46:23;;;;;;;11.83;9.20;;;13.90;1.00;;;;;;5069069;28;20218;-53
2023/05/13 00:48:50;;;;;;;10.27;9.23;;;13.90;1.00;;;;;;5066390;28;20207;-55
2023/05/13 00:51:17;;;;;;;9.80;8.80;;;13.80;1.00;;;;;;5065688;28;20504;-53
2023/05/13 00:53:43;;;;;;;10.63;9.50;;;13.80;1.00;;;;;;5065269;28;20453;-54
2023/05/13 00:56:08;;;;;;;10.13;9.07;;;13.70;1.00;;;;;;5065992;28;20971;-54
2023/05/13 00:58:34;;;;;;;13.03;10.70;;;13.70;1.00;;;;;;5068743;28;20417;-57
2023/05/13 01:01:04;;;;;;;9.63;8.70;;;13.70;1.00;;;;;;5065996;28;20234;-56
2023/05/13 01:03:51;;;;;;;10.10;9.20;;;13.70;1.00;;;;;;5065154;28;20196;-53
2023/05/13 01:06:35;;;;;;;10.33;9.30;;;13.60;1.00;;;;;;5068066;28;20453;-52
2023/05/13 01:09:23;;;;;;;10.60;9.53;;;13.60;1.00;;;;;;5066017;28;20470;-52
2023/05/13 01:11:52;;;;;;;10.23;9.33;;;13.60;1.00;;;;;;5061606;28;20449;-56
2023/05/13 01:14:41;;;;;;;9.50;8.60;;;13.50;1.00;;;;;;5063435;28;20549;-55
2023/05/13 01:17:23;;;;;;;10.43;9.33;;;13.50;1.00;;;;;;5064224;28;21307;-54
2023/05/13 01:19:53;;;;;;;11.77;8.90;;;13.60;1.00;;;;;;5060451;28;20978;-54
2023/05/13 01:22:19;;;;;;;10.77;9.70;;;13.40;1.00;;;;;;5059830;28;20444;-54
2023/05/13 01:24:44;;;;;;;13.70;9.70;;;13.30;1.00;;;;;;5061970;28;20438;-55
2023/05/13 01:27:10;;;;;;;10.63;9.63;;;13.30;1.00;;;;;;5063255;28;20650;-53
2023/05/13 01:29:36;;;;;;;9.83;8.90;;;13.30;1.00;;;;;;5063997;28;20716;-54
2023/05/13 01:32:03;;;;;;;10.20;9.30;;;13.20;1.00;;;;;;5065946;28;20446;-52
2023/05/13 01:34:29;;;;;;;9.77;8.77;;;13.20;1.00;;;;;;5062786;28;20877;-54
2023/05/13 01:36:55;;;;;;;10.67;9.77;;;13.20;1.00;;;;;;5063838;28;20446;-54
2023/05/13 01:39:23;;;;;;;9.83;8.87;;;13.10;1.00;;;;;;5062380;28;20473;-53
2023/05/13 01:41:48;;;;;;;10.23;8.47;;;13.10;1.00;;;;;;5065867;28;20191;-56
2023/05/13 01:44:14;;;;;;;10.90;9.93;;;13.10;1.00;;;;;;5065178;28;20462;-53
2023/05/13 01:46:42;;;;;;;9.60;8.13;;;13.10;1.00;;;;;;5066190;28;21242;-54
2023/05/13 01:49:09;;;;;;;9.93;8.60;;;13.00;1.00;;;;;;5066947;28;20294;-57
2023/05/13 01:51:36;;;;;;;9.70;8.80;;;13.00;1.00;;;;;;5066519;28;20453;-51
2023/05/13 01:54:02;;;;;;;10.00;9.00;;;13.00;1.00;;;;;;5061104;28;20499;-54
2023/05/13 01:56:28;;;;;;;9.60;8.70;;;13.00;1.00;;;;;;5064457;28;20485;-55
2023/05/13 01:58:54;;;;;;;9.83;8.83;;;13.00;1.00;;;;;;5063986;28;20464;-55
2023/05/13 02:01:19;;;;;;;10.27;9.33;;;13.00;1.00;;;;;;5065810;28;20199;-52
2023/05/13 02:03:45;;;;;;;10.57;9.50;;;13.10;1.00;;;;;;5067508;28;20200;-52
2023/05/13 02:06:11;;;;;;;10.57;9.00;;;13.10;1.00;;;;;;5063338;28;20187;-55
2023/05/13 02:08:36;;;;;;;10.00;9.07;;;13.00;1.00;;;;;;5074674;28;20218;-52
2023/05/13 02:11:02;;;;;;;9.40;8.50;;;13.00;1.00;;;;;;5062875;28;20207;-53
2023/05/13 02:13:27;;;;;;;10.50;9.40;;;13.10;1.00;;;;;;5067364;28;20205;-55
2023/05/13 02:15:53;;;;;;;9.57;8.77;;;13.00;1.00;;;;;;5056419;28;20192;-54
2023/05/13 02:18:20;;;;;;;9.33;8.43;;;13.00;1.00;;;;;;5066527;28;20685;-54
2023/05/13 02:20:45;;;;;;;9.60;8.70;;;13.10;1.00;;;;;;5068118;28;20466;-53
2023/05/13 02:23:11;;;;;;;9.27;8.30;;;13.10;1.00;;;;;;5084639;28;20465;-56
2023/05/13 02:25:37;;;;;;;10.00;9.00;;;13.10;1.00;;;;;;5064332;28;20886;-54
2023/05/13 02:28:03;;;;;;;9.90;9.00;;;13.10;1.00;;;;;;5063578;28;20446;-53
2023/05/13 02:30:28;;;;;;;9.80;8.90;;;13.10;1.00;;;;;;5059674;28;20235;-53
2023/05/13 02:32:55;;;;;;;11.67;10.43;;;13.00;1.00;;;;;;5064612;28;20234;-53
2023/05/13 02:35:21;;;;;;;9.17;8.40;;;12.90;1.00;;;;;;5066464;28;20184;-53
2023/05/13 02:37:47;;;;;;;9.67;8.83;;;12.90;1.00;;;;;;5064923;28;20449;-56
2023/05/13 02:40:13;;;;;;;9.87;9.07;;;12.80;1.00;;;;;;5064445;28;20446;-53
2023/05/13 02:42:39;;;;;;;9.60;8.50;;;12.80;1.00;;;;;;5069941;28;20446;-54
2023/05/13 02:45:05;;;;;;;9.57;8.00;;;12.70;1.00;;;;;;5067598;28;20454;-56
2023/05/13 02:47:30;;;;;;;9.70;8.77;;;12.60;1.00;;;;;;5070993;28;20225;-56
2023/05/13 02:49:56;;;;;;;9.57;8.67;;;12.60;1.00;;;;;;5067799;28;20560;-53
2023/05/13 02:52:22;;;;;;;9.87;9.03;;;12.50;1.00;;;;;;5067559;28;20199;-54
2023/05/13 02:54:48;;;;;;;10.13;9.13;;;12.40;1.00;;;;;;5066104;28;20194;-52
2023/05/13 02:57:13;;;;;;;9.63;8.83;;;12.40;1.00;;;;;;5067104;28;20828;-54
2023/05/13 02:59:39;;;;;;;10.00;9.00;;;12.30;1.00;;;;;;5066899;28;20208;-54
2023/05/13 03:02:05;;;;;;;9.53;8.57;;;12.30;1.00;;;;;;5069498;28;20262;-53
2023/05/13 03:04:30;;;;;;;9.87;8.97;;;12.20;1.00;;;;;;5064389;28;20245;-56
2023/05/13 03:06:56;;;;;;;9.40;8.50;;;12.30;1.00;;;;;;5065006;28;20665;-54
2023/05/13 03:09:21;;;;;;;9.30;8.50;;;12.20;1.00;;;;;;5062292;28;20685;-55
2023/05/13 03:11:47;;;;;;;10.03;9.13;;;12.20;1.00;;;;;;5065108;28;20625;-53
2023/05/13 03:14:13;;;;;;;8.97;8.07;;;12.20;1.00;;;;;;5070088;28;20199;-53
2023/05/13 03:16:39;;;;;;;9.23;8.20;;;12.20;1.00;;;;;;5064155;28;20192;-56
2023/05/13 03:19:04;;;;;;;9.90;8.90;;;12.20;1.00;;;;;;5068376;28;20246;-53
2023/05/13 03:21:30;;;;;;;9.43;8.53;;;12.20;1.00;;;;;;5070675;28;20212;-53
2023/05/13 03:23:56;;;;;;;9.17;8.37;;;12.30;1.00;;;;;;5068140;28;20196;-54
2023/05/13 03:26:21;;;;;;;8.20;7.57;;;12.30;1.00;;;;;;5068849;28;20192;-54
2023/05/13 03:28:47;;;;;;;9.27;8.47;;;12.30;1.00;;;;;;5081622;28;22560;-56
2023/05/13 03:31:13;;;;;;;8.43;7.63;;;12.30;1.00;;;;;;5067248;28;20649;-55
2023/05/13 03:33:38;;;;;;;8.53;7.80;;;12.30;1.00;;;;;;5067142;28;20263;-54
2023/05/13 03:36:05;;;;;;;7.77;7.07;;;12.40;1.00;;;;;;5060984;28;20568;-56
2023/05/13 03:38:31;;;;;;;9.17;8.33;;;12.30;1.00;;;;;;5067319;28;20312;-54
2023/05/13 03:40:57;;;;;;;8.00;7.27;;;12.40;1.00;;;;;;5064952;28;20484;-54
2023/05/13 03:43:23;;;;;;;9.10;8.30;;;12.30;1.00;;;;;;5066447;28;20191;-56
2023/05/13 03:45:50;;;;;;;7.77;7.07;;;12.30;1.00;;;;;;5066436;28;20234;-54
2023/05/13 03:48:16;;;;;;;8.60;7.70;;;12.30;1.00;;;;;;5066904;28;21552;-54
2023/05/13 03:50:41;;;;;;;9.00;7.33;;;12.30;1.00;;;;;;5074760;28;20488;-54
2023/05/13 03:53:07;;;;;;;7.93;7.17;;;12.30;1.00;;;;;;5073058;28;20195;-56
2023/05/13 03:55:33;;;;;;;8.10;7.40;;;12.30;1.00;;;;;;5068807;28;20542;-55
2023/05/13 03:57:58;;;;;;;7.33;6.73;;;12.30;1.00;;;;;;5075074;28;20820;-52
2023/05/13 04:00:24;;;;;;;8.83;8.00;;;12.30;1.00;;;;;;5065076;28;20191;-53
2023/05/13 04:02:49;;;;;;;7.83;7.10;;;12.30;1.00;;;;;;5064347;28;20519;-55
2023/05/13 04:05:16;;;;;;;8.80;7.90;;;12.30;1.00;;;;;;5066122;28;20188;-54
2023/05/13 04:07:42;;;;;;;7.97;7.27;;;12.30;1.00;;;;;;5075274;28;20290;-54
2023/05/13 04:10:09;;;;;;;8.30;7.50;;;12.30;1.00;;;;;;5063802;28;20470;-55
2023/05/13 04:12:34;;;;;;;7.63;7.03;;;12.30;1.00;;;;;;5066063;28;20212;-52
2023/05/13 04:15:00;;;;;;;8.00;7.30;;;12.30;1.00;;;;;;5063820;28;20530;-53
2023/05/13 04:17:26;;;;;;;8.13;6.80;;;12.40;1.00;;;;;;5060159;28;20199;-54
2023/05/13 04:19:53;;;;;;;8.60;7.80;;;12.50;1.00;;;;;;5064959;28;20184;-53
2023/05/13 04:22:19;;;;;;;9.27;6.80;;;12.50;1.00;;;;;;5068987;28;20954;-55
2023/05/13 04:24:45;;;;;;;7.50;6.90;;;12.50;1.00;;;;;;5064528;28;20454;-51
2023/05/13 04:27:10;;;;;;;7.43;6.83;;;12.60;1.00;;;;;;5075328;28;20442;-53
2023/05/13 04:29:36;;;;;;;7.47;6.77;;;12.70;1.00;;;;;;5062849;28;20261;-55
2023/05/13 04:32:02;;;;;;;7.30;6.60;;;12.80;1.00;;;;;;5065257;28;20183;-53
2023/05/13 04:34:27;;;;;;;7.60;6.83;;;12.80;1.00;;;;;;5066485;28;20199;-52
2023/05/13 04:36:53;;;;;;;7.27;6.77;;;12.80;1.00;;;;;;5066190;28;20267;-52
2023/05/13 04:39:18;;;;;;;7.53;6.80;;;12.90;1.00;;;;;;5069767;28;20199;-54
2023/05/13 04:41:44;;;;;;;7.60;6.90;;;12.90;1.00;;;;;;5064711;28;21201;-55
2023/05/13 04:44:10;;;;;;;7.70;7.10;;;13.00;1.00;;;;;;5069455;28;20187;-53
2023/05/13 04:46:39;;;;;;;8.13;6.53;;;13.00;1.00;;;;;;5065780;28;20657;-55
2023/05/13 04:49:05;;;;;;;11.20;6.63;;;13.10;1.00;;;;;;5064295;28;20196;-52
2023/05/13 04:51:31;;;;;;;7.20;6.50;;;13.20;1.00;;;;;;5060934;28;20445;-55
2023/05/13 04:53:57;;;;;;;8.03;7.23;;;13.20;1.00;;;;;;5066926;28;20429;-54
2023/05/13 04:56:23;;;;;;;6.80;6.20;;;13.30;1.00;;;;;;5064372;28;20470;-54
2023/05/13 04:58:48;;;;;;;7.00;6.43;;;13.40;1.00;;;;;;5062495;28;21008;-56
2023/05/13 05:01:14;;;;;;;7.47;6.53;;;13.40;1.00;;;;;;5064115;28;20189;-54
2023/05/13 05:03:40;;;;;;;7.30;6.70;;;13.50;1.00;;;;;;5065822;28;20215;-57
2023/05/13 05:06:05;;;;;;;7.47;6.87;;;13.50;1.00;;;;;;5064445;28;20306;-53
2023/05/13 05:08:31;;;;;;;7.27;6.57;;;13.60;1.00;;;;;;5073219;28;20596;-54
2023/05/13 05:10:59;;;;;;;6.83;6.00;;;13.60;1.00;;;;;;5062619;28;20302;-55
2023/05/13 05:13:24;;;;;;;6.20;5.60;;;13.70;1.00;;;;;;5062622;28;20869;-54
2023/05/13 05:15:50;;;;;;;6.73;6.03;;;13.90;1.00;;;;;;5066522;28;20450;-54
2023/05/13 05:18:15;;;;;;;7.87;6.67;;;14.00;1.00;;;;;;5075049;28;20199;-53
2023/05/13 05:20:41;;;;;;;7.03;6.33;;;14.10;1.00;;;;;;5068189;28;20944;-52
2023/05/13 05:23:09;;;;;;;6.50;5.90;;;14.20;1.00;;;;;;5071582;28;20204;-53
2023/05/13 05:25:35;;;;;;;7.27;6.60;;;14.30;1.00;;;;;;5063291;28;20199;-54
2023/05/13 05:28:03;;;;;;;7.80;6.47;;;14.40;1.00;;;;;;5064577;28;20507;-55
2023/05/13 05:30:31;;;;;;;7.30;6.60;;;14.40;1.00;;;;;;5064423;28;21538;-59
2023/05/13 05:32:57;;;;;;;6.13;5.63;;;14.50;1.00;;;;;;5064550;28;20494;-58
2023/05/13 05:35:23;;;;;;;7.57;6.87;;;14.70;1.00;;;;;;5069888;28;20947;-54
2023/05/13 05:37:49;;;;;;;6.93;5.87;;;14.80;1.00;;;;;;5065582;28;20532;-53
2023/05/13 05:40:14;;;;;;;7.20;6.50;;;15.00;1.00;;;;;;5065809;28;20196;-55
2023/05/13 05:42:40;;;;;;;6.20;5.70;;;15.00;1.00;;;;;;5060952;28;20575;-54
2023/05/13 05:45:06;;;;;;;6.53;5.90;;;15.20;1.00;;;;;;5062774;28;20192;-51
2023/05/13 05:47:32;;;;;;;6.20;5.70;;;15.30;1.00;;;;;;5065376;28;20241;-55
2023/05/13 05:49:57;;;;;;;9.07;6.87;;;15.50;1.00;;;;;;5063448;28;20989;-53
2023/05/13 05:52:23;;;;;;;7.93;6.23;;;15.40;1.00;;;;;;5074342;28;20656;-54
2023/05/13 05:54:48;;;;;;;6.53;5.57;;;15.60;1.00;;;;;;5068867;28;20187;-52
2023/05/13 05:57:14;;;;;;;6.03;5.30;;;15.80;1.00;;;;;;5065761;28;20230;-53
2023/05/13 05:59:40;;;;;;;6.40;5.80;;;15.90;1.00;;;;;;5060740;28;20190;-55
2023/05/13 06:02:06;;;;;;;6.13;5.60;;;16.00;1.00;;;;;;5064769;28;20828;-52
2023/05/13 06:04:32;;;;;;;7.63;6.23;;;16.10;1.00;;;;;;5067449;28;20180;-55
2023/05/13 06:06:57;;;;;;;6.03;5.40;;;16.10;1.00;;;;;;5065273;28;20484;-55
2023/05/13 06:09:23;;;;;;;6.10;5.60;;;16.20;99.90;;;;;;5064962;28;20340;-52
2023/05/13 06:11:48;;;;;;;6.27;5.70;;;16.30;99.90;;;;;;5066922;28;20657;-54
2023/05/13 06:14:16;;;;;;;6.00;5.47;;;16.30;99.90;;;;;;5064640;28;20183;-53
2023/05/13 06:16:41;;;;;;;6.10;5.63;;;16.50;99.90;;;;;;5068015;28;20184;-52
2023/05/13 06:19:07;;;;;;;6.63;6.03;;;16.60;99.90;;;;;;5070011;28;20499;-54
2023/05/13 06:21:33;;;;;;;7.27;5.73;;;16.70;99.90;;;;;;5069499;28;20184;-54
2023/05/13 06:23:59;;;;;;;5.80;5.30;;;16.90;99.90;;;;;;5071166;28;20279;-53
2023/05/13 06:26:25;;;;;;;8.50;6.90;;;17.00;99.90;;;;;;5068696;28;20993;-54
2023/05/13 06:28:51;;;;;;;9.20;5.70;;;17.10;99.90;;;;;;5068205;28;20490;-55
2023/05/13 06:31:16;;;;;;;6.47;5.67;;;17.10;99.90;;;;;;5070980;28;20192;-53
2023/05/13 06:33:42;;;;;;;7.37;6.07;;;17.20;99.90;;;;;;5068312;28;20186;-52
2023/05/13 06:36:08;;;;;;;5.77;5.23;;;17.40;99.90;;;;;;5063370;28;20665;-52
2023/05/13 06:38:34;;;;;;;5.90;5.40;;;17.40;99.90;;;;;;5067066;28;20308;-54
2023/05/13 06:41:00;;;;;;;5.80;5.30;;;17.40;99.90;;;;;;5065798;28;20450;-53
2023/05/13 06:43:25;;;;;;;6.50;4.60;;;17.50;99.90;;;;;;5071798;28;20437;-53
2023/05/13 06:45:51;;;;;;;5.47;4.97;;;17.60;99.90;;;;;;5069608;28;20184;-54
2023/05/13 06:48:16;;;;;;;6.03;5.33;;;17.60;99.90;;;;;;5067999;28;20254;-54
2023/05/13 06:50:42;;;;;;;5.57;5.07;;;17.60;99.90;;;;;;5073364;28;20207;-55
2023/05/13 06:53:10;;;;;;;5.73;5.03;;;17.80;99.90;;;;;;5082791;28;20190;-53
2023/05/13 06:55:40;;;;;;;5.50;4.83;;;17.90;99.90;;;;;;5083021;28;20211;-54
2023/05/13 06:58:07;;;;;;;5.00;4.50;;;18.00;99.90;;;;;;5070301;28;20950;-52
2023/05/13 07:00:36;;;;;;;6.17;5.33;;;18.00;99.90;;;;;;5068861;28;21105;-54
2023/05/13 07:03:02;;;;;;;7.03;5.23;;;18.10;99.90;;;;;;5067120;28;20462;-54
2023/05/13 07:05:28;;;;;;;4.43;4.13;;;18.10;99.90;;;;;;5063048;28;21280;-53
2023/05/13 07:07:53;;;;;;;4.83;4.27;;;18.20;99.90;;;;;;5067048;28;20461;-53
2023/05/13 07:10:19;;;;;;;4.93;4.43;;;18.40;99.90;;;;;;5085948;28;20560;-52
2023/05/13 07:12:45;;;;;;;4.60;4.27;;;18.40;99.90;;;;;;5078627;28;20180;-52
2023/05/13 07:15:10;;;;;;;5.00;4.50;;;18.60;99.90;;;;;;5070089;28;20196;-53
2023/05/13 07:17:36;;;;;;;5.27;4.77;;;18.60;99.90;;;;;;5067988;28;20176;-53
2023/05/13 07:20:02;;;;;;;4.87;4.40;;;18.90;99.90;;;;;;5078429;28;20188;-52
2023/05/13 07:22:27;;;;;;;5.13;4.30;;;19.00;99.90;;;;;;5069444;28;20669;-53
2023/05/13 07:24:53;;;;;;;5.50;4.03;;;19.00;99.90;;;;;;5070834;28;20183;-55
2023/05/13 07:27:20;;;;;;;4.30;4.00;;;19.20;99.90;;;;;;5064736;28;20282;-53
2023/05/13 07:29:46;;;;;;;4.90;4.50;;;19.40;99.90;;;;;;5065811;28;20467;-53
2023/05/13 07:32:11;;;;;;;5.00;4.50;;;19.50;99.90;;;;;;5070599;28;20436;-53
2023/05/13 07:34:37;;;;;;;4.93;4.50;;;19.60;99.90;;;;;;5082958;28;20183;-55
2023/05/13 07:37:03;;;;;;;4.50;4.07;;;19.70;99.90;;;;;;5070763;28;20204;-54
2023/05/13 07:39:29;;;;;;;4.67;3.87;;;19.70;99.90;;;;;;5066158;28;20278;-53
2023/05/13 07:41:54;;;;;;;4.07;3.67;;;19.80;99.90;;;;;;5067102;28;20884;-52
2023/05/13 07:44:20;;;;;;;3.77;3.43;;;20.00;99.90;;;;;;5068262;28;20271;-55
2023/05/13 07:46:48;;;;;;;4.33;3.93;;;20.10;99.90;;;;;;5064739;28;20192;-52
2023/05/13 07:49:13;;;;;;;3.80;3.50;;;20.20;99.90;;;;;;5070472;28;20484;-53
2023/05/13 07:51:39;;;;;;;4.07;3.50;;;20.20;99.90;;;;;;5064187;28;20476;-54
2023/05/13 07:54:04;;;;;;;3.83;3.53;;;20.30;99.90;;;;;;5065831;28;20219;-52
2023/05/13 07:56:30;;;;;;;3.63;3.33;;;20.40;99.90;;;;;;5066305;28;20239;-54
2023/05/13 07:58:56;;;;;;;3.33;3.13;;;20.40;99.90;;;;;;5066470;28;20176;-51
2023/05/13 08:01:22;;;;;;;3.60;3.23;;;20.50;99.90;;;;;;5069587;28;20191;-52
2023/05/13 08:03:48;;;;;;;5.03;3.80;;;20.60;99.90;;;;;;5071975;28;20449;-52
2023/05/13 08:06:13;;;;;;;3.73;3.43;;;20.80;99.90;;;;;;5077045;28;20180;-54
2023/05/13 08:08:39;;;;;;;4.70;3.70;;;21.00;99.90;;;;;;5070367;28;20180;-56
2023/05/13 08:11:04;;;;;;;3.40;3.10;;;21.00;99.90;;;;;;5070334;28;20196;-52
2023/05/13 08:13:30;;;;;;;3.57;3.27;;;21.00;99.90;;;;;;5065867;28;20192;-54
2023/05/13 08:16:00;;;;;;;3.23;3.03;;;21.00;99.90;;;;;;5061846;28;20193;-54
2023/05/13 08:18:26;;;;;;;4.63;3.40;;;20.90;99.90;;;;;;5068370;28;20188;-54
2023/05/13 08:20:52;;;;;;;3.90;3.37;;;20.90;99.90;;;;;;5064312;28;20960;-53
2023/05/13 08:23:17;;;;;;;4.53;3.40;;;21.00;99.90;;;;;;5062531;28;20199;-55
2023/05/13 08:25:43;;;;;;;3.67;3.37;;;21.10;99.90;;;;;;5064574;28;20207;-55
2023/05/13 08:28:08;;;;;;;4.00;3.50;;;21.20;99.90;;;;;;5069875;28;20190;-53
2023/05/13 08:30:34;;;;;;;4.57;3.87;;;21.00;99.90;;;;;;5063680;28;20208;-56
2023/05/13 08:32:59;;;;;;;4.30;3.90;;;20.70;99.90;;;;;;5072577;28;20180;-50
2023/05/13 08:35:25;;;;;;;4.30;3.43;;;20.40;99.90;;;;;;5066575;28;20233;-52
2023/05/13 08:37:51;;;;;;;4.53;3.90;;;20.50;99.90;;;;;;5069742;28;20211;-51
2023/05/13 08:40:17;;;;;;;5.70;4.40;;;20.70;99.90;;;;;;5065786;28;20192;-51
2023/05/13 08:42:46;;;;;;;6.23;3.87;;;20.70;99.90;;;;;;5058333;28;20447;-54
2023/05/13 08:45:20;;;;;;;4.00;3.70;;;21.00;99.90;;;;;;5074533;28;20496;-53
2023/05/13 08:47:53;;;;;;;3.90;3.60;;;21.30;99.90;;;;;;5064025;28;20847;-54
2023/05/13 08:50:19;;;;;;;4.60;3.77;;;21.30;99.90;;;;;;5030075;28;20855;-53
2023/05/13 08:52:45;;;;;;;4.73;4.20;;;20.80;99.90;;;;;;5063771;28;20446;-54
2023/05/13 08:55:11;;;;;;;4.30;3.90;;;20.80;99.90;;;;;;5069148;28;20756;-54
2023/05/13 08:57:38;;;;;;;4.37;3.97;;;21.00;99.90;;;;;;5064739;28;20216;-55
2023/05/13 09:00:04;;;;;;;5.13;4.63;;;21.10;99.90;;;;;;5063701;28;21018;-54
2023/05/13 09:02:30;;;;;;;4.70;4.30;;;21.10;99.90;;;;;;5067473;28;20449;-52
2023/05/13 09:05:01;;;;;;;4.50;4.10;;;20.80;99.90;;;;;;5075721;28;20513;-52
2023/05/13 09:07:30;;;;;;;4.40;4.10;;;20.40;99.90;;;;;;5076242;28;20214;-56
2023/05/13 09:09:56;;;;;;;4.17;3.80;;;20.60;99.90;;;;;;5060199;28;20502;-53
2023/05/13 09:12:48;;;;;;;4.30;3.90;;;20.80;99.90;;;;;;5065619;28;20927;-53
2023/05/13 09:15:25;;;;;;;4.53;4.13;;;20.80;99.90;;;;;;5062923;28;20903;-53
2023/05/13 09:18:12;;;;;;;4.63;4.10;;;20.80;99.90;;;;;;5060159;28;20850;-53
2023/05/13 09:20:38;;;;;;;4.73;4.30;;;20.90;99.90;;;;;;5066411;28;20503;-53
2023/05/13 09:23:10;;;;;;;4.17;3.87;;;20.90;99.90;;;;;;5066468;28;20504;-55
2023/05/13 09:25:37;;;;;;;4.33;3.83;;;21.10;99.90;;;;;;5067732;28;20241;-54
2023/05/13 09:28:05;;;;;;;5.33;4.77;;;21.30;99.90;;;;;;5088600;28;20950;-54
2023/05/13 09:30:35;;;;;;;5.20;4.47;;;21.70;99.90;;;;;;5078602;28;20468;-55
2023/05/13 09:33:07;;;;;;;4.53;4.13;;;21.70;99.90;;;;;;5066370;28;20415;-57
2023/05/13 09:35:34;;;;;;;4.37;3.97;;;21.90;99.90;;;;;;5064322;28;20447;-57
2023/05/13 09:38:00;;;;;;;4.20;3.90;;;22.10;99.90;;;;;;5077349;28;20530;-58
2023/05/13 09:40:26;;;;;;;5.73;4.47;;;22.40;99.90;;;;;;5066352;28;20524;-56
2023/05/13 09:42:57;;;;;;;4.83;3.70;;;22.50;99.90;;;;;;5067644;28;20432;-57
2023/05/13 09:45:25;;;;;;;4.83;3.87;;;22.80;99.90;;;;;;5059629;28;20203;-56
2023/05/13 09:47:53;;;;;;;4.63;3.87;;;23.10;99.90;;;;;;5070926;28;20541;-57
2023/05/13 09:50:19;;;;;;;4.30;3.70;;;23.10;99.90;;;;;;5070045;28;20473;-57
2023/05/13 09:52:45;;;;;;;4.93;4.20;;;23.10;99.90;;;;;;5072725;28;20430;-58
2023/05/13 09:55:11;;;;;;;5.30;4.33;;;23.50;99.90;;;;;;5066661;28;20214;-56
2023/05/13 09:57:38;;;;;;;4.43;4.03;;;23.70;99.90;;;;;;5071341;28;20506;-55
2023/05/13 10:00:04;;;;;;;4.20;3.90;;;23.90;99.90;;;;;;5069393;28;20193;-58
2023/05/13 10:02:31;;;;;;;5.00;4.27;;;23.70;99.90;;;;;;5072744;28;20505;-56
2023/05/13 10:04:57;;;;;;;4.03;3.73;;;23.50;99.90;;;;;;5092926;28;20432;-56
2023/05/13 10:07:24;;;;;;;7.17;3.93;;;23.50;99.90;;;;;;5066765;28;20479;-57
2023/05/13 10:09:56;;;;;;;5.83;4.20;;;23.30;99.90;;;;;;5070323;28;20858;-55
2023/05/13 10:12:24;;;;;;;4.90;4.50;;;23.20;99.90;;;;;;5065608;28;20454;-55
2023/05/13 10:14:51;;;;;;;5.13;4.10;;;22.90;99.90;;;;;;5067796;28;20448;-56
2023/05/13 10:17:22;;;;;;;5.10;4.67;;;22.70;99.90;;;;;;5056028;28;20687;-54
2023/05/13 10:19:52;;;;;;;5.67;4.67;;;22.50;99.90;;;;;;5067741;28;20445;-56
2023/05/13 10:22:30;;;;;;;5.70;4.23;;;22.40;99.90;;;;;;5073108;28;20465;-56
2023/05/13 10:25:00;;;;;;;4.00;3.70;;;22.50;99.90;;;;;;5069391;28;20456;-55
2023/05/13 10:27:30;;;;;;;4.57;4.17;;;22.60;99.90;;;;;;5073059;28;20571;-56
2023/05/13 10:29:58;;;;;;;4.27;3.87;;;22.60;99.90;;;;;;5068788;28;20516;-54
2023/05/13 10:32:26;;;;;;;4.60;4.20;;;22.60;99.90;;;;;;5069648;28;20470;-54
2023/05/13 10:35:10;;;;;;;4.10;3.70;;;22.70;99.90;;;;;;5070489;28;20455;-52
2023/05/13 10:38:15;;;;;;;4.63;4.20;;;23.00;99.90;;;;;;5065871;28;20442;-54
2023/05/13 10:41:04;;;;;;;4.40;3.93;;;23.20;99.90;;;;;;5037362;28;20451;-55
2023/05/13 10:43:31;;;;;;;4.20;3.80;;;23.40;99.90;;;;;;5038492;28;20453;-55
2023/05/13 10:46:11;;;;;;;4.67;4.27;;;23.40;99.90;;;;;;5069561;28;20459;-55
2023/05/13 10:48:53;;;;;;;6.00;4.43;;;23.40;99.90;;;;;;5068198;28;20451;-55
2023/05/13 10:51:22;;;;;;;4.60;3.73;;;23.70;99.90;;;;;;5071245;28;20452;-54
2023/05/13 10:53:53;;;;;;;6.10;4.43;;;23.80;99.90;;;;;;5065691;28;20501;-55
2023/05/13 10:56:20;;;;;;;6.00;4.60;;;23.80;99.90;;;;;;5065429;28;21000;-54
2023/05/13 10:59:03;;;;;;;5.80;4.40;;;23.80;99.90;;;;;;5066113;28;20469;-54
2023/05/13 11:01:32;;;;;;;4.00;3.70;;;23.30;99.90;;;;;;5065980;28;20445;-54
2023/05/13 11:04:03;;;;;;;5.33;3.80;;;22.90;99.90;;;;;;5057071;28;21005;-55
2023/05/13 11:06:40;;;;;;;5.50;4.80;;;22.60;99.90;;;;;;5067111;28;20447;-53
2023/05/13 11:09:07;;;;;;;6.23;4.03;;;22.20;99.90;;;;;;5066368;28;21420;-54
2023/05/13 11:11:34;;;;;;;5.57;4.60;;;21.90;99.90;;;;;;5067743;28;20447;-53
2023/05/13 11:14:13;;;;;;;5.10;4.60;;;21.50;99.90;;;;;;5068941;28;20480;-55
2023/05/13 11:17:07;;;;;;;5.37;4.70;;;21.20;99.90;;;;;;5064029;28;20476;-53
2023/05/13 11:19:52;;;;;;;4.53;4.10;;;21.10;99.90;;;;;;5060291;28;20454;-54
2023/05/13 11:22:21;;;;;;;5.10;4.67;;;21.40;99.90;;;;;;5066027;28;20462;-54
2023/05/13 11:25:08;;;;;;;5.53;4.63;;;21.20;99.90;;;;;;5064221;28;20482;-54
2023/05/13 11:27:38;;;;;;;4.60;4.20;;;21.40;99.90;;;;;;5062359;28;20457;-54
2023/05/13 11:30:25;;;;;;;5.70;4.80;;;21.70;99.90;;;;;;5067048;28;20515;-56
2023/05/13 11:32:54;;;;;;;3.90;3.60;;;21.80;99.90;;;;;;5063901;28;20417;-53
2023/05/13 11:35:21;;;;;;;4.67;4.27;;;21.80;99.90;;;;;;5064838;28;20506;-54
2023/05/13 11:37:48;;;;;;;4.93;4.53;;;21.80;99.90;;;;;;5063830;28;20434;-53
2023/05/13 11:40:34;;;;;;;4.73;4.33;;;21.60;99.90;;;;;;5081892;28;20460;-54
2023/05/13 11:43:00;;;;;;;4.57;4.17;;;21.30;99.90;;;;;;5070363;28;20562;-55
2023/05/13 11:45:28;;;;;;;4.17;3.40;;;21.40;99.90;;;;;;5062743;28;20511;-54
2023/05/13 11:47:55;;;;;;;14.47;5.00;;;21.60;99.90;;;;;;5063571;28;20456;-55
2023/05/13 11:50:21;;;;;;;7.40;3.83;;;21.80;99.90;;;;;;5068567;28;21312;-55
2023/05/13 11:52:54;;;;;;;5.80;4.07;;;22.10;99.90;;;;;;5064854;28;20448;-56
2023/05/13 11:55:31;;;;;;;3.33;3.03;;;22.30;99.90;;;;;;5062570;28;20445;-56
2023/05/13 11:57:58;;;;;;;4.90;3.17;;;22.60;99.90;;;;;;5072598;28;20512;-56
2023/05/13 12:00:28;;;;;;;3.70;3.10;;;22.80;99.90;;;;;;5077004;28;21016;-54
2023/05/13 12:02:54;;;;;;;4.00;3.23;;;22.90;99.90;;;;;;5068089;28;20452;-56
2023/05/13 12:05:20;;;;;;;3.43;3.20;;;23.10;99.90;;;;;;5073136;28;20482;-55
2023/05/13 12:07:47;;;;;;;3.17;2.97;;;23.40;99.90;;;;;;5066434;28;20450;-57
2023/05/13 12:10:13;;;;;;;3.27;2.97;;;23.70;99.90;;;;;;5066532;28;20477;-55
2023/05/13 12:12:41;;;;;;;3.60;3.30;;;23.80;99.90;;;;;;5062673;28;20955;-54
2023/05/13 12:15:10;;;;;;;3.40;2.77;;;23.80;99.90;;;;;;5076850;28;20538;-54
2023/05/13 12:17:36;;;;;;;3.47;3.10;;;23.80;99.90;;;;;;5062116;28;20421;-54
2023/05/13 12:20:15;;;;;;;4.63;3.33;;;23.90;99.90;;;;;;5067490;28;20456;-58
2023/05/13 12:22:44;;;;;;;3.47;3.17;;;23.60;99.90;;;;;;5064008;28;20959;-54
2023/05/13 12:25:38;;;;;;;3.80;3.50;;;23.50;99.90;;;;;;5062187;28;20442;-55
2023/05/13 12:28:11;;;;;;;5.90;2.87;;;23.60;99.90;;;;;;5065777;28;20538;-54
2023/05/13 12:30:39;;;;;;;3.03;2.60;;;23.60;99.90;;;;;;5067004;28;20495;-54
2023/05/13 12:33:11;;;;;;;5.17;2.67;;;23.50;99.90;;;;;;5065960;28;20447;-56
2023/05/13 12:35:36;;;;;;;3.30;3.00;;;23.50;99.90;;;;;;5066335;28;20905;-54
2023/05/13 12:38:03;;;;;;;2.97;2.77;;;23.50;99.90;;;;;;5058124;28;20446;-55
2023/05/13 12:40:30;;;;;;;4.80;3.17;;;23.20;99.90;;;;;;5057741;28;20276;-54
2023/05/13 12:42:57;;;;;;;3.80;2.90;;;23.00;99.90;;;;;;5064305;28;20482;-55
2023/05/13 12:45:27;;;;;;;4.00;2.70;;;22.80;99.90;;;;;;5059723;28;20474;-56
2023/05/13 12:47:54;;;;;;;2.73;2.53;;;22.90;99.90;;;;;;5062187;28;20476;-57
2023/05/13 12:50:20;;;;;;;3.13;2.83;;;22.90;99.90;;;;;;5066385;28;20986;-54
2023/05/13 12:52:45;;;;;;;3.00;2.57;;;22.90;99.90;;;;;;5062734;28;20963;-55